Time;durP1;ratioP1;P1;durP2;ratioP2;P2;SDS_P1;SDS_P2;PMS_P1;PMS_P2;Temp;Humidity;BMP_temperature;BMP_pressure;BME280_temperature;BME280_humidity;BME280_pressure;Samples;Min_cycle;Max_cycle;Signal;HPM_P1;HPM_P2
2022/06/26 00:00:24;;;;;;;;;;;;;;;23.48;40.14;99047.52;1747009;82;20116;-40
2022/06/26 00:02:50;;;;;;;;;;;;;;;23.45;39.29;99050.54;1746923;82;20115;-38
2022/06/26 00:05:15;;;;;;;;;;;;;;;23.42;39.67;99056.28;1746901;82;20099;-38
2022/06/26 00:07:41;;;;;;;;;;;;;;;23.40;39.71;99058.30;1746765;81;20095;-40
2022/06/26 00:10:07;;;;;;;;;;;;;;;23.33;40.53;99054.95;1746975;82;20095;-39
2022/06/26 00:12:34;;;;;;;;;;;;;;;23.26;41.13;99057.98;1746867;81;20103;-40
2022/06/26 00:14:59;;;;;;;;;;;;;;;23.25;40.99;99059.02;1746929;81;20127;-40
2022/06/26 00:17:25;;;;;;;;;;;;;;;23.23;41.00;99055.67;1747021;82;20107;-40
2022/06/26 00:19:50;;;;;;;;;;;;;;;23.17;41.10;99052.31;1746868;82;20128;-39
2022/06/26 00:22:17;;;;;;;;;;;;;;;23.15;41.14;99061.88;1746814;81;20453;-40
2022/06/26 00:24:42;;;;;;;;;;;;;;;23.13;40.81;99062.55;1746959;82;20099;-41
2022/06/26 00:27:09;;;;;;;;;;;;;;;23.10;41.29;99059.38;1746812;81;20099;-38
2022/06/26 00:29:35;;;;;;;;;;;;;;;23.07;40.92;99061.08;1746871;82;20110;-39
2022/06/26 00:32:01;;;;;;;;;;;;;;;23.02;41.90;99067.42;1746876;82;20416;-39
2022/06/26 00:34:27;;;;;;;;;;;;;;;23.00;41.79;99063.05;1746923;82;20108;-40
2022/06/26 00:36:53;;;;;;;;;;;;;;;22.96;42.02;99067.09;1746836;81;20404;-39
2022/06/26 00:39:18;;;;;;;;;;;;;;;22.95;42.27;99064.57;1746946;82;20095;-39
2022/06/26 00:41:44;;;;;;;;;;;;;;;22.95;42.11;99062.72;1746875;82;20102;-39
2022/06/26 00:44:18;;;;;;;;;;;;;;;22.91;42.11;99069.95;1746928;81;20123;-40
2022/06/26 00:46:44;;;;;;;;;;;;;;;22.91;41.90;99072.11;1746848;82;20412;-40
2022/06/26 00:49:10;;;;;;;;;;;;;;;22.89;42.58;99072.79;1746744;82;20413;-39
2022/06/26 00:51:39;;;;;;;;;;;;;;;22.89;41.55;99071.97;1746874;81;20156;-39
2022/06/26 00:54:07;;;;;;;;;;;;;;;22.86;42.21;99068.27;1746929;82;20111;-39
2022/06/26 00:56:36;;;;;;;;;;;;;;;22.83;42.83;99069.94;1746947;82;20103;-39
2022/06/26 00:59:02;;;;;;;;;;;;;;;22.84;42.62;99071.11;1746865;82;20405;-40
2022/06/26 01:01:28;;;;;;;;;;;;;;;22.83;42.76;99076.16;1746886;82;20429;-39
2022/06/26 01:03:54;;;;;;;;;;;;;;;22.84;42.66;99076.98;1746988;82;20099;-38
2022/06/26 01:06:19;;;;;;;;;;;;;;;22.79;43.41;99072.13;1747006;81;20400;-39
2022/06/26 01:08:46;;;;;;;;;;;;;;;22.79;43.23;99071.64;1746968;82;20100;-39
2022/06/26 01:11:17;;;;;;;;;;;;;;;22.78;43.11;99073.14;1747035;82;20111;-39
2022/06/26 01:13:47;;;;;;;;;;;;;;;22.76;43.43;99069.80;1747029;82;20448;-39
2022/06/26 01:16:18;;;;;;;;;;;;;;;22.75;43.39;99072.13;1747033;81;20131;-44
2022/06/26 01:18:44;;;;;;;;;;;;;;;22.76;43.06;99073.82;1746978;81;20107;-40
2022/06/26 01:21:10;;;;;;;;;;;;;;;22.73;44.11;99077.66;1747112;81;20111;-39
2022/06/26 01:23:36;;;;;;;;;;;;;;;22.72;43.50;99071.12;1747062;82;20103;-38
2022/06/26 01:26:02;;;;;;;;;;;;;;;22.70;43.61;99073.13;1746951;82;20127;-39
2022/06/26 01:28:28;;;;;;;;;;;;;;;22.67;43.61;99068.12;1747105;82;20127;-39
2022/06/26 01:30:54;;;;;;;;;;;;;;;22.65;44.24;99068.77;1746983;81;20435;-42
2022/06/26 01:33:20;;;;;;;;;;;;;;;22.64;43.77;99061.76;1746976;81;20123;-39
2022/06/26 01:35:46;;;;;;;;;;;;;;;22.59;44.48;99061.77;1747002;82;20099;-39
2022/06/26 01:38:17;;;;;;;;;;;;;;;22.50;44.51;99065.42;1746989;82;20127;-40
2022/06/26 01:40:44;;;;;;;;;;;;;;;22.47;44.76;99068.45;1746990;81;20420;-39
2022/06/26 01:43:11;;;;;;;;;;;;;;;22.47;44.06;99064.95;1746988;82;20112;-40
2022/06/26 01:45:43;;;;;;;;;;;;;;;22.46;44.34;99065.42;1746974;82;20135;-41
2022/06/26 01:48:09;;;;;;;;;;;;;;;22.41;44.52;99066.42;1745305;81;20148;-39
2022/06/26 01:50:34;;;;;;;;;;;;;;;22.40;45.37;99077.65;1746977;82;20151;-39
2022/06/26 01:53:00;;;;;;;;;;;;;;;22.39;45.28;99083.17;1747149;82;20139;-39
2022/06/26 01:55:25;;;;;;;;;;;;;;;22.38;44.45;99073.48;1746961;82;20130;-39
2022/06/26 01:57:51;;;;;;;;;;;;;;;22.34;45.17;99072.97;1747014;82;20143;-39
2022/06/26 02:00:16;;;;;;;;;;;;;;;22.33;45.07;99075.80;1746893;82;20087;-39
2022/06/26 02:02:42;;;;;;;;;;;;;;;22.31;45.56;99075.97;1747011;82;20095;-39
2022/06/26 02:05:08;;;;;;;;;;;;;;;22.31;44.48;99076.48;1747029;82;20104;-38
2022/06/26 02:07:33;;;;;;;;;;;;;;;22.30;46.12;99077.47;1747020;82;20095;-39
2022/06/26 02:15:16;;;;;;;;;;;;;;;22.26;45.37;99079.64;1747002;82;20106;-39
2022/06/26 02:17:42;;;;;;;;;;;;;;;22.24;46.10;99081.62;1746931;82;20130;-40
2022/06/26 02:20:09;;;;;;;;;;;;;;;22.22;44.88;99084.45;1746972;82;20115;-39
2022/06/26 02:22:34;;;;;;;;;;;;;;;22.14;46.60;99087.61;1746963;82;20395;-40
2022/06/26 02:25:00;;;;;;;;;;;;;;;22.14;46.55;99090.29;1747020;82;20107;-39
2022/06/26 02:27:26;;;;;;;;;;;;;;;22.13;46.62;99091.31;1746885;82;20111;-39
2022/06/26 02:29:52;;;;;;;;;;;;;;;22.12;46.46;99086.47;1746887;81;20115;-39
2022/06/26 02:32:17;;;;;;;;;;;;;;;22.11;46.90;99085.28;1746942;82;20135;-41
2022/06/26 02:34:43;;;;;;;;;;;;;;;22.10;46.69;99091.12;1746990;82;20388;-40
2022/06/26 02:37:09;;;;;;;;;;;;;;;22.08;46.97;99092.30;1746920;82;20099;-38
2022/06/26 02:39:34;;;;;;;;;;;;;;;22.06;46.70;99095.13;1746961;81;20111;-41
2022/06/26 02:42:00;;;;;;;;;;;;;;;22.02;46.93;99101.31;1748021;78;20410;-39
2022/06/26 02:44:26;;;;;;;;;;;;;;;22.02;46.84;99099.14;1768204;81;20366;-39
2022/06/26 02:46:52;;;;;;;;;;;;;;;22.02;46.25;99103.99;1768316;81;20121;-39
2022/06/26 02:49:17;;;;;;;;;;;;;;;21.99;47.19;99108.83;1768343;81;20463;-39
2022/06/26 02:51:43;;;;;;;;;;;;;;;21.97;47.20;99109.50;1768515;81;20130;-39
2022/06/26 02:54:08;;;;;;;;;;;;;;;21.93;47.50;99105.48;1768379;81;20102;-40
2022/06/26 02:56:34;;;;;;;;;;;;;;;21.94;46.86;99109.34;1768349;81;20106;-40
2022/06/26 02:59:00;;;;;;;;;;;;;;;21.92;47.81;99104.65;1768267;81;20439;-38
2022/06/26 03:01:25;;;;;;;;;;;;;;;21.94;47.63;99105.80;1768287;81;20114;-40
2022/06/26 03:03:51;;;;;;;;;;;;;;;21.91;47.43;99107.48;1768437;81;20094;-38
2022/06/26 03:06:16;;;;;;;;;;;;;;;21.88;47.84;99119.84;1768359;81;20501;-39
2022/06/26 03:08:42;;;;;;;;;;;;;;;21.88;47.73;99123.86;1768348;81;20105;-38
2022/06/26 03:11:08;;;;;;;;;;;;;;;21.83;48.00;99122.52;1768485;81;20149;-38
2022/06/26 03:13:33;;;;;;;;;;;;;;;21.82;48.66;99124.84;1768310;81;20403;-39
2022/06/26 03:15:59;;;;;;;;;;;;;;;21.82;48.47;99121.33;1768338;81;20102;-38
2022/06/26 03:18:24;;;;;;;;;;;;;;;21.76;48.19;99120.65;1768353;81;20137;-39
2022/06/26 03:20:50;;;;;;;;;;;;;;;21.74;48.12;99122.14;1768394;81;20418;-39
2022/06/26 03:23:15;;;;;;;;;;;;;;;21.72;48.01;99124.63;1768309;81;20106;-39
2022/06/26 03:25:41;;;;;;;;;;;;;;;21.72;47.49;99128.16;1768334;81;20106;-38
2022/06/26 03:28:07;;;;;;;;;;;;;;;21.70;49.09;99127.97;1768150;81;20387;-39
2022/06/26 03:30:32;;;;;;;;;;;;;;;21.70;48.96;99134.66;1768365;81;20103;-38
2022/06/26 03:32:58;;;;;;;;;;;;;;;21.67;48.43;99137.16;1768357;81;20106;-40
2022/06/26 03:35:23;;;;;;;;;;;;;;;21.66;49.14;99139.48;1768379;81;20164;-39
2022/06/26 03:37:49;;;;;;;;;;;;;;;21.66;49.39;99138.98;1768380;81;20098;-38
2022/06/26 03:40:15;;;;;;;;;;;;;;;21.64;48.56;99137.47;1767421;81;20121;-38
2022/06/26 03:42:40;;;;;;;;;;;;;;;21.62;49.11;99142.15;1762119;80;20146;-38
2022/06/26 03:45:07;;;;;;;;;;;;;;;21.64;47.86;99144.16;1760288;81;20403;-39
2022/06/26 03:47:33;;;;;;;;;;;;;;;21.62;48.80;99146.99;1760361;81;20123;-39
2022/06/26 03:49:59;;;;;;;;;;;;;;;21.62;49.44;99140.81;1760217;81;20130;-38
2022/06/26 03:52:25;;;;;;;;;;;;;;;21.66;49.33;99145.67;1760175;82;20115;-38
2022/06/26 03:54:51;;;;;;;;;;;;;;;21.66;49.46;99148.85;1760168;82;20138;-38
2022/06/26 03:57:16;;;;;;;;;;;;;;;21.66;48.97;99145.67;1760192;81;20415;-39
2022/06/26 03:59:43;;;;;;;;;;;;;;;21.66;49.62;99143.50;1760140;82;20117;-39
2022/06/26 04:02:09;;;;;;;;;;;;;;;21.67;48.54;99143.86;1760288;81;20146;-39
2022/06/26 04:04:34;;;;;;;;;;;;;;;21.63;49.66;99142.50;1760245;81;20095;-39
2022/06/26 04:07:00;;;;;;;;;;;;;;;21.65;49.35;99142.67;1760137;81;20138;-39
2022/06/26 04:09:26;;;;;;;;;;;;;;;21.67;49.20;99142.52;1760187;81;20138;-38
2022/06/26 04:11:51;;;;;;;;;;;;;;;21.70;49.18;99144.85;1760149;82;20118;-39
2022/06/26 04:14:17;;;;;;;;;;;;;;;21.72;49.72;99150.91;1760245;82;20098;-39
2022/06/26 04:16:42;;;;;;;;;;;;;;;21.74;49.82;99152.92;1760200;81;20150;-39
2022/06/26 04:19:08;;;;;;;;;;;;;;;21.76;49.18;99156.78;1760245;81;20114;-39
2022/06/26 04:21:34;;;;;;;;;;;;;;;21.76;49.45;99156.78;1760163;81;20098;-38
2022/06/26 04:23:59;;;;;;;;;;;;;;;21.78;49.65;99152.94;1760197;81;20115;-39
2022/06/26 04:26:25;;;;;;;;;;;;;;;21.78;50.25;99156.13;1760118;81;20103;-39
2022/06/26 04:28:50;;;;;;;;;;;;;;;21.80;49.72;99160.81;1760282;81;20110;-40
2022/06/26 04:31:16;;;;;;;;;;;;;;;21.80;50.18;99162.98;1760199;81;20114;-40
2022/06/26 04:33:43;;;;;;;;;;;;;;;21.80;49.50;99161.64;1760190;81;20114;-39
2022/06/26 04:36:09;;;;;;;;;;;;;;;21.82;50.39;99162.82;1760247;81;20098;-41
2022/06/26 04:38:34;;;;;;;;;;;;;;;21.82;49.76;99162.31;1760119;82;20398;-39
2022/06/26 04:41:31;;;;;;;;;;;;;;;21.86;49.20;99164.17;1760128;82;20142;-40
2022/06/26 04:43:28;;;;;;;;;;;;;;;21.89;49.65;99165.20;1756349;81;20146;-40
2022/06/26 04:45:53;;;;;;;;;;;;;;;21.90;50.04;99172.72;1760191;81;20114;-39
2022/06/26 04:48:19;;;;;;;;;;;;;;;21.92;50.06;99172.05;1760375;81;20196;-39
2022/06/26 04:50:44;;;;;;;;;;;;;;;21.91;49.65;99174.41;1760179;81;20114;-40
2022/06/26 04:53:10;;;;;;;;;;;;;;;21.96;50.35;99174.77;1760181;81;20106;-39
2022/06/26 04:55:35;;;;;;;;;;;;;;;21.97;49.41;99179.11;1760246;82;20110;-40
2022/06/26 04:58:01;;;;;;;;;;;;;;;21.99;50.40;99173.95;1760167;81;20134;-39
2022/06/26 05:00:27;;;;;;;;;;;;;;;22.01;50.05;99180.45;1760202;81;20114;-40
2022/06/26 05:02:52;;;;;;;;;;;;;;;22.05;49.78;99176.48;1760268;81;20130;-39
2022/06/26 05:05:18;;;;;;;;;;;;;;;22.07;49.76;99179.00;1760209;81;20113;-40
2022/06/26 05:07:44;;;;;;;;;;;;;;;22.09;49.40;99185.86;1760141;81;20411;-38
2022/06/26 05:10:09;;;;;;;;;;;;;;;22.13;49.59;99185.04;1760145;82;20114;-40
2022/06/26 05:12:35;;;;;;;;;;;;;;;22.16;49.73;99186.89;1760264;82;20138;-39
2022/06/26 05:15:01;;;;;;;;;;;;;;;22.17;49.44;99189.89;1760157;81;20111;-40
2022/06/26 05:17:26;;;;;;;;;;;;;;;22.21;49.58;99191.27;1760198;81;20110;-40
2022/06/26 05:19:52;;;;;;;;;;;;;;;22.24;49.48;99197.62;1760181;82;20142;-39
2022/06/26 05:22:17;;;;;;;;;;;;;;;22.27;49.26;99191.66;1760229;82;20158;-39
2022/06/26 05:24:43;;;;;;;;;;;;;;;22.31;48.58;99196.52;1760152;82;20115;-39
2022/06/26 05:27:09;;;;;;;;;;;;;;;22.35;49.07;99201.05;1760171;82;20111;-40
2022/06/26 05:29:34;;;;;;;;;;;;;;;22.40;48.68;99204.08;1760192;82;20427;-39
2022/06/26 05:32:00;;;;;;;;;;;;;;;22.44;48.70;99201.41;1760164;81;20130;-39
2022/06/26 05:34:25;;;;;;;;;;;;;;;22.47;48.62;99201.09;1760201;81;20106;-38
2022/06/26 05:36:51;;;;;;;;;;;;;;;22.53;48.77;99207.63;1760212;81;20111;-39
2022/06/26 05:39:16;;;;;;;;;;;;;;;22.56;48.38;99209.48;1760091;81;20102;-39
2022/06/26 05:41:42;;;;;;;;;;;;;;;22.60;48.89;99210.83;1760189;82;20114;-38
2022/06/26 05:44:08;;;;;;;;;;;;;;;22.65;47.96;99214.36;1760167;82;20114;-39
2022/06/26 05:46:33;;;;;;;;;;;;;;;22.69;49.27;99215.70;1760076;82;20102;-39
2022/06/26 05:48:59;;;;;;;;;;;;;;;22.74;48.08;99216.05;1760178;82;20141;-39
2022/06/26 05:51:25;;;;;;;;;;;;;;;22.78;48.11;99214.71;1760395;81;20403;-40
2022/06/26 05:53:50;;;;;;;;;;;;;;;22.84;48.46;99219.91;1760194;82;20098;-39
2022/06/26 05:56:16;;;;;;;;;;;;;;;22.88;47.79;99222.59;1760300;81;20114;-39
2022/06/26 05:58:41;;;;;;;;;;;;;;;22.92;47.97;99221.76;1760492;81;20115;-40
2022/06/26 06:01:07;;;;;;;;;;;;;;;22.95;47.90;99222.27;1760359;81;20455;-40
2022/06/26 06:03:32;;;;;;;;;;;;;;;22.99;47.76;99222.77;1760323;82;20126;-39
2022/06/26 06:05:58;;;;;;;;;;;;;;;23.00;48.51;99230.66;1760417;81;20110;-39
2022/06/26 06:08:24;;;;;;;;;;;;;;;23.05;47.91;99234.22;1760216;82;20146;-39
2022/06/26 06:10:50;;;;;;;;;;;;;;;23.10;47.69;99233.70;1760300;81;20110;-40
2022/06/26 06:13:15;;;;;;;;;;;;;;;23.14;48.40;99230.54;1760308;82;20114;-40
2022/06/26 06:15:41;;;;;;;;;;;;;;;23.19;47.50;99237.59;1760327;81;20211;-40
2022/06/26 06:18:06;;;;;;;;;;;;;;;23.26;47.17;99244.95;1760293;82;20106;-39
2022/06/26 06:20:32;;;;;;;;;;;;;;;23.30;47.09;99243.12;1759610;82;20126;-40
2022/06/26 06:23:04;;;;;;;;;;;;;;;23.36;46.88;99247.80;1759219;81;20607;-40
2022/06/26 06:25:31;;;;;;;;;;;;;;;23.40;46.91;99245.63;1759054;81;20142;-38
2022/06/26 06:27:56;;;;;;;;;;;;;;;23.47;46.63;99239.09;1759410;82;20426;-39
2022/06/26 06:30:22;;;;;;;;;;;;;;;23.52;46.53;99246.10;1760445;82;20114;-40
2022/06/26 06:32:48;;;;;;;;;;;;;;;23.58;47.04;99249.47;1760280;82;20118;-39
2022/06/26 06:35:14;;;;;;;;;;;;;;;23.65;46.91;99247.78;1760302;81;20113;-39
2022/06/26 06:37:41;;;;;;;;;;;;;;;23.71;46.73;99248.43;1760406;82;20110;-39
2022/06/26 06:40:08;;;;;;;;;;;;;;;23.77;45.91;99251.77;1759301;81;20403;-39
2022/06/26 06:42:34;;;;;;;;;;;;;;;23.85;46.34;99255.47;1758564;82;20103;-40
2022/06/26 06:45:00;;;;;;;;;;;;;;;23.89;46.27;99261.69;1750150;82;20107;-41
2022/06/26 06:47:26;;;;;;;;;;;;;;;23.95;45.94;99261.50;1750158;82;20110;-41
2022/06/26 06:49:52;;;;;;;;;;;;;;;24.01;46.06;99262.14;1750156;82;20115;-41
2022/06/26 06:52:17;;;;;;;;;;;;;;;24.09;45.66;99265.34;1750149;82;20415;-40
2022/06/26 06:54:43;;;;;;;;;;;;;;;24.15;45.57;99266.80;1750105;82;20107;-41
2022/06/26 06:57:09;;;;;;;;;;;;;;;24.21;45.09;99261.24;1750115;82;20102;-40
2022/06/26 06:59:34;;;;;;;;;;;;;;;24.28;44.99;99264.08;1750149;82;20107;-41
2022/06/26 07:02:00;;;;;;;;;;;;;;;24.34;44.99;99264.23;1750176;82;20110;-40
2022/06/26 07:04:25;;;;;;;;;;;;;;;24.39;45.08;99261.00;1750158;82;20130;-41
2022/06/26 07:06:51;;;;;;;;;;;;;;;24.47;44.60;99261.50;1749999;82;20131;-41
2022/06/26 07:09:17;;;;;;;;;;;;;;;24.53;44.57;99260.30;1750109;82;20106;-39
2022/06/26 07:11:42;;;;;;;;;;;;;;;24.62;44.40;99261.62;1750121;82;20131;-40
2022/06/26 07:14:08;;;;;;;;;;;;;;;24.69;44.25;99262.59;1750211;82;20111;-41
2022/06/26 07:16:35;;;;;;;;;;;;;;;24.76;44.13;99263.56;1750116;82;20098;-41
2022/06/26 07:19:01;;;;;;;;;;;;;;;24.79;42.92;99265.88;1750179;82;20395;-41
2022/06/26 07:21:27;;;;;;;;;;;;;;;24.88;43.50;99260.77;1750062;82;20115;-40
2022/06/26 07:23:52;;;;;;;;;;;;;;;24.95;43.06;99259.56;1750116;82;20107;-42
2022/06/26 07:26:18;;;;;;;;;;;;;;;25.02;42.66;99261.86;1750052;82;20108;-41
2022/06/26 07:28:44;;;;;;;;;;;;;;;25.10;42.73;99260.96;1750037;82;20098;-41
2022/06/26 07:31:10;;;;;;;;;;;;;;;25.14;42.82;99260.95;1743356;82;20378;-40
2022/06/26 07:36:20;;;;;;;;;;;;;;;25.27;41.74;99259.04;1719455;83;20121;-39
2022/06/26 07:38:45;;;;;;;;;;;;;;;25.36;41.63;99264.68;1719233;83;20132;-41
2022/06/26 07:41:11;;;;;;;;;;;;;;;25.44;41.25;99260.55;1719229;83;20125;-40
2022/06/26 07:43:36;;;;;;;;;;;;;;;25.53;41.51;99264.02;1718905;83;20136;-39
2022/06/26 07:46:02;;;;;;;;;;;;;;;25.60;41.31;99262.27;1719198;83;20268;-41
2022/06/26 07:48:28;;;;;;;;;;;;;;;25.67;41.18;99262.38;1719311;83;20128;-41
2022/06/26 07:50:53;;;;;;;;;;;;;;;25.72;38.36;99262.64;1720357;83;20141;-39
2022/06/26 07:53:20;;;;;;;;;;;;;;;25.80;39.33;99273.36;1720384;83;20100;-41
2022/06/26 07:55:46;;;;;;;;;;;;;;;25.88;40.24;99264.34;1720368;83;20544;-41
2022/06/26 07:58:11;;;;;;;;;;;;;;;25.95;39.76;99262.62;1720318;83;20133;-40
2022/06/26 08:00:37;;;;;;;;;;;;;;;26.02;38.69;99259.51;1720322;83;20130;-41
2022/06/26 08:03:06;;;;;;;;;;;;;;;26.15;40.34;99262.90;1720321;83;20101;-41
2022/06/26 08:05:31;;;;;;;;;;;;;;;26.23;39.05;99261.95;1719520;82;20152;-40
2022/06/26 08:07:57;;;;;;;;;;;;;;;26.34;40.03;99253.42;1720358;83;20454;-41
2022/06/26 08:10:23;;;;;;;;;;;;;;;26.47;39.78;99255.94;1692082;83;20129;-41
2022/06/26 08:12:48;;;;;;;;;;;;;;;26.53;39.37;99259.24;1720312;83;20109;-40
2022/06/26 08:15:14;;;;;;;;;;;;;;;26.61;38.42;99251.92;1720333;83;20104;-39
2022/06/26 08:17:40;;;;;;;;;;;;;;;26.72;38.58;99265.39;1720379;83;20133;-39
2022/06/26 08:20:06;;;;;;;;;;;;;;;26.86;38.15;99266.91;1720410;83;20109;-41
2022/06/26 08:22:32;;;;;;;;;;;;;;;26.98;38.70;99263.52;1720311;83;20117;-40
2022/06/26 08:24:57;;;;;;;;;;;;;;;27.07;36.38;99261.53;1720319;83;20105;-41
2022/06/26 08:27:23;;;;;;;;;;;;;;;27.19;37.63;99265.37;1720271;83;20113;-39
2022/06/26 08:29:49;;;;;;;;;;;;;;;27.27;36.59;99260.41;1720385;83;20425;-39
2022/06/26 08:32:15;;;;;;;;;;;;;;;27.37;37.17;99262.24;1720258;83;20136;-41
2022/06/26 08:34:41;;;;;;;;;;;;;;;27.54;35.27;99272.27;1720537;83;20140;-41
2022/06/26 08:37:07;;;;;;;;;;;;;;;27.70;36.68;99259.49;1720288;83;20116;-41
2022/06/26 08:39:35;;;;;;;;;;;;;;;27.87;35.54;99268.98;1720331;83;20109;-40
2022/06/26 08:42:02;;;;;;;;;;;;;;;28.02;34.13;99269.42;1720052;83;20129;-40
2022/06/26 08:44:28;;;;;;;;;;;;;;;28.13;35.19;99271.55;1720290;83;20426;-41
2022/06/26 08:46:54;;;;;;;;;;;;;;;28.29;34.20;99264.99;1720244;83;20168;-41
2022/06/26 08:49:23;;;;;;;;;;;;;;;28.49;33.91;99271.84;1720321;83;20473;-42
2022/06/26 08:51:51;;;;;;;;;;;;;;;28.68;35.78;99265.69;1720301;83;20140;-42
2022/06/26 08:54:17;;;;;;;;;;;;;;;28.84;36.18;99262.31;1720496;83;20121;-40
2022/06/26 08:56:45;;;;;;;;;;;;;;;28.98;35.90;99273.98;1720367;83;20109;-39
2022/06/26 08:59:12;;;;;;;;;;;;;;;29.05;35.00;99280.25;1720377;83;20116;-40
2022/06/26 09:01:39;;;;;;;;;;;;;;;29.22;34.85;99273.98;1720319;83;20109;-41
2022/06/26 09:04:05;;;;;;;;;;;;;;;29.37;33.07;99274.60;1720282;83;20116;-41
2022/06/26 09:06:37;;;;;;;;;;;;;;;29.53;34.28;99273.89;1720281;83;20129;-39
2022/06/26 09:09:22;;;;;;;;;;;;;;;29.65;32.37;99285.75;1719327;83;20117;-41
2022/06/26 09:11:49;;;;;;;;;;;;;;;29.77;31.51;99278.69;1720350;83;20453;-41
2022/06/26 09:14:15;;;;;;;;;;;;;;;29.90;30.97;99282.44;1720400;83;20113;-40
2022/06/26 09:16:45;;;;;;;;;;;;;;;30.06;30.81;99275.20;1720395;83;20140;-41
2022/06/26 09:19:12;;;;;;;;;;;;;;;30.18;31.23;99280.30;1720329;83;20116;-40
2022/06/26 09:21:39;;;;;;;;;;;;;;;30.30;29.11;99276.38;1720422;83;20109;-41
2022/06/26 09:24:13;;;;;;;;;;;;;;;30.51;29.45;99283.95;1720379;83;20101;-42
2022/06/26 09:26:43;;;;;;;;;;;;;;;30.68;28.50;99278.35;1720400;83;20129;-40
2022/06/26 09:29:13;;;;;;;;;;;;;;;30.96;28.68;99282.61;1720433;83;20135;-40
2022/06/26 09:31:40;;;;;;;;;;;;;;;31.28;28.68;99269.87;1720461;83;20394;-40
2022/06/26 09:34:06;;;;;;;;;;;;;;;31.50;27.57;99277.15;1720452;83;20395;-40
2022/06/26 09:36:32;;;;;;;;;;;;;;;31.71;27.06;99273.75;1720512;83;20116;-41
2022/06/26 09:38:58;;;;;;;;;;;;;;;32.02;26.98;99275.53;1720446;83;20116;-42
2022/06/26 09:41:32;;;;;;;;;;;;;;;32.36;26.06;99280.62;1720435;83;20105;-41
2022/06/26 09:43:58;;;;;;;;;;;;;;;32.92;25.23;99278.68;1724138;82;20105;-39
2022/06/26 09:46:29;;;;;;;;;;;;;;;33.30;24.07;99281.61;1730206;83;20108;-42
2022/06/26 09:48:57;;;;;;;;;;;;;;;33.81;24.40;99280.97;1729549;83;20109;-40
2022/06/26 09:51:23;;;;;;;;;;;;;;;34.19;23.55;99281.58;1730216;83;20108;-39
2022/06/26 09:53:49;;;;;;;;;;;;;;;34.64;23.01;99288.21;1730261;83;20473;-40
2022/06/26 09:56:14;;;;;;;;;;;;;;;35.03;22.43;99282.44;1730238;83;20113;-41
2022/06/26 09:58:40;;;;;;;;;;;;;;;35.31;22.32;99277.52;1730240;83;20164;-38
2022/06/26 10:06:36;;;;;;;;;;;;;;;35.99;21.99;99282.96;1729609;83;20132;-40
2022/06/26 10:09:06;;;;;;;;;;;;;;;36.52;21.23;99282.03;1730365;83;20397;-39
2022/06/26 10:11:34;;;;;;;;;;;;;;;36.37;21.57;99290.08;1730257;83;20093;-39
2022/06/26 10:14:06;;;;;;;;;;;;;;;36.76;21.65;99284.52;1730321;83;20152;-40
2022/06/26 10:17:07;;;;;;;;;;;;;;;36.92;21.37;99280.05;1730165;83;20112;-40
2022/06/26 10:19:56;;;;;;;;;;;;;;;37.29;20.91;99279.31;1730241;83;20413;-38
2022/06/26 10:22:22;;;;;;;;;;;;;;;37.45;19.84;99279.72;1730210;83;20140;-41
2022/06/26 10:24:55;;;;;;;;;;;;;;;38.17;20.95;99277.52;1730170;83;20141;-40
2022/06/26 10:27:26;;;;;;;;;;;;;;;38.19;19.33;99283.01;1730205;83;20117;-41
2022/06/26 10:30:09;;;;;;;;;;;;;;;38.38;19.70;99279.79;1729082;83;20128;-44
2022/06/26 10:32:35;;;;;;;;;;;;;;;38.66;18.60;99290.08;1730256;83;20121;-41
2022/06/26 10:35:01;;;;;;;;;;;;;;;38.50;18.77;99285.07;1730193;83;20116;-42
2022/06/26 10:37:30;;;;;;;;;;;;;;;38.34;18.53;99284.17;1730170;83;20200;-42
2022/06/26 10:39:57;;;;;;;;;;;;;;;38.32;18.50;99282.25;1706197;83;20117;-42
2022/06/26 10:45:15;;;;;;;;;;;;;;;39.01;18.01;99289.91;1730216;82;20116;-40
2022/06/26 10:47:52;;;;;;;;;;;;;;;39.14;18.79;99287.47;1729463;83;20112;-42
2022/06/26 10:50:39;;;;;;;;;;;;;;;39.80;18.49;99275.36;1730190;83;20116;-39
2022/06/26 10:53:28;;;;;;;;;;;;;;;39.78;17.18;99272.88;1730219;83;20136;-43
2022/06/26 10:55:58;;;;;;;;;;;;;;;39.64;17.10;99283.66;1729967;83;20117;-44
2022/06/26 10:58:30;;;;;;;;;;;;;;;39.73;16.77;99289.40;1730287;83;20116;-41
2022/06/26 11:00:58;;;;;;;;;;;;;;;39.70;17.07;99289.41;1730230;83;20128;-41
2022/06/26 11:03:24;;;;;;;;;;;;;;;39.63;16.79;99286.13;1729601;82;20110;-42
2022/06/26 11:05:54;;;;;;;;;;;;;;;40.13;17.34;99283.55;1730199;83;20426;-43
2022/06/26 11:08:31;;;;;;;;;;;;;;;40.29;16.89;99284.33;1730147;83;20109;-41
2022/06/26 11:11:01;;;;;;;;;;;;;;;40.29;17.14;99282.95;1730227;83;20108;-41
2022/06/26 11:13:27;;;;;;;;;;;;;;;40.15;16.76;99278.61;1730212;83;20111;-43
2022/06/26 11:15:53;;;;;;;;;;;;;;;40.21;16.72;99282.17;1730223;83;20449;-40
2022/06/26 11:18:18;;;;;;;;;;;;;;;40.28;16.49;99277.19;1730163;83;20105;-40
2022/06/26 11:20:50;;;;;;;;;;;;;;;40.40;16.51;99281.83;1730148;83;20153;-40
2022/06/26 11:23:19;;;;;;;;;;;;;;;40.56;16.69;99279.83;1730171;83;20101;-43
2022/06/26 11:25:47;;;;;;;;;;;;;;;40.90;17.09;99270.86;1725566;81;20124;-39
2022/06/26 11:28:13;;;;;;;;;;;;;;;41.11;16.02;99274.27;1730105;83;20109;-41
2022/06/26 11:30:40;;;;;;;;;;;;;;;41.39;16.25;99279.61;1730135;83;20121;-44
2022/06/26 11:33:06;;;;;;;;;;;;;;;41.14;15.79;99272.33;1730207;83;20136;-42
2022/06/26 11:35:34;;;;;;;;;;;;;;;41.44;15.78;99267.15;1730133;83;20108;-39
2022/06/26 11:38:11;;;;;;;;;;;;;;;41.11;15.67;99277.03;1730148;83;20100;-42
2022/06/26 11:40:37;;;;;;;;;;;;;;;41.55;16.36;99279.45;1730235;83;20117;-39
2022/06/26 11:43:02;;;;;;;;;;;;;;;41.12;16.11;99274.55;1730152;83;20108;-41
2022/06/26 11:45:32;;;;;;;;;;;;;;;41.41;16.28;99277.37;1730081;81;20108;-38
2022/06/26 11:48:00;;;;;;;;;;;;;;;41.15;16.21;99273.14;1730067;83;20685;-43
2022/06/26 11:50:27;;;;;;;;;;;;;;;40.87;15.96;99273.61;1730195;83;20112;-45
2022/06/26 11:52:55;;;;;;;;;;;;;;;40.64;16.09;99270.98;1730154;82;20437;-38
2022/06/26 11:55:21;;;;;;;;;;;;;;;40.40;17.03;99265.86;1728997;81;20103;-42
2022/06/26 11:57:47;;;;;;;;;;;;;;;40.10;16.68;99272.56;1730123;83;20109;-39
2022/06/26 12:00:13;;;;;;;;;;;;;;;39.31;17.29;99273.47;1730147;83;20153;-39
2022/06/26 12:02:45;;;;;;;;;;;;;;;39.70;17.75;99260.52;1729935;83;20132;-42
2022/06/26 12:05:11;;;;;;;;;;;;;;;39.74;17.08;99273.17;1729313;83;20140;-42
2022/06/26 12:07:44;;;;;;;;;;;;;;;39.48;16.69;99276.52;1729034;83;20121;-44
2022/06/26 12:10:09;;;;;;;;;;;;;;;39.19;16.95;99275.66;1729612;81;20116;-42
2022/06/26 12:12:35;;;;;;;;;;;;;;;38.77;17.45;99262.92;1730152;83;20108;-43
2022/06/26 12:15:01;;;;;;;;;;;;;;;38.73;17.96;99268.14;1730233;83;20140;-41
2022/06/26 12:17:28;;;;;;;;;;;;;;;38.78;18.12;99265.94;1730132;83;20123;-40
2022/06/26 12:20:10;;;;;;;;;;;;;;;38.53;18.82;99261.16;1729775;83;20136;-42
2022/06/26 12:22:36;;;;;;;;;;;;;;;38.50;19.74;99264.47;1729629;83;20108;-39
2022/06/26 12:25:03;;;;;;;;;;;;;;;38.27;19.40;99267.93;1730185;83;20120;-41
2022/06/26 12:27:39;;;;;;;;;;;;;;;37.94;19.20;99269.12;1730113;83;20133;-40
2022/06/26 12:30:22;;;;;;;;;;;;;;;37.65;19.38;99270.85;1730136;83;20448;-38
2022/06/26 12:32:47;;;;;;;;;;;;;;;37.34;20.74;99270.58;1730111;83;20131;-41
2022/06/26 12:35:13;;;;;;;;;;;;;;;37.35;20.36;99273.62;1729571;83;20163;-40
2022/06/26 12:37:38;;;;;;;;;;;;;;;37.29;19.85;99262.31;1729084;83;20457;-38
2022/06/26 12:40:05;;;;;;;;;;;;;;;37.13;20.39;99260.48;1728837;83;20172;-42
2022/06/26 12:42:31;;;;;;;;;;;;;;;36.84;20.77;99266.23;1730082;82;20246;-38
2022/06/26 12:44:57;;;;;;;;;;;;;;;36.65;19.81;99258.34;1725940;83;20169;-41
2022/06/26 12:47:22;;;;;;;;;;;;;;;36.35;20.26;99259.35;1720275;83;20116;-38
2022/06/26 12:49:48;;;;;;;;;;;;;;;36.45;21.52;99258.12;1720386;83;20406;-41
2022/06/26 12:52:14;;;;;;;;;;;;;;;36.21;21.27;99269.33;1720317;83;20113;-40
2022/06/26 12:54:40;;;;;;;;;;;;;;;36.17;21.18;99264.05;1720331;83;20117;-38
2022/06/26 12:57:05;;;;;;;;;;;;;;;35.83;20.94;99261.94;1720402;83;20422;-40
2022/06/26 12:59:31;;;;;;;;;;;;;;;35.80;21.84;99264.61;1720375;83;20117;-40
2022/06/26 13:01:57;;;;;;;;;;;;;;;35.68;22.27;99252.94;1720495;83;20117;-39